Time;durP1;ratioP1;P1;durP2;ratioP2;P2;SDS_P1;SDS_P2;PMS_P1;PMS_P2;Temp;Humidity;BMP_temperature;BMP_pressure;BME280_temperature;BME280_humidity;BME280_pressure;Samples;Min_cycle;Max_cycle;Signal;HPM_P1;HPM_P2
2023/12/18 00:00:05;;;;;;;10.77;7.03;;;;;;;;;;4888603;29;20220;-67
2023/12/18 00:02:32;;;;;;;8.23;6.33;;;;;;;;;;4889328;29;20251;-67
2023/12/18 00:04:59;;;;;;;9.77;6.73;;;;;;;;;;4886958;29;20213;-67
2023/12/18 00:07:27;;;;;;;9.27;6.53;;;;;;;;;;4888659;29;20239;-68
2023/12/18 00:09:54;;;;;;;10.30;7.00;;;;;;;;;;4888944;29;20233;-67
2023/12/18 00:12:23;;;;;;;8.57;6.87;;;;;;;;;;4888817;29;20225;-67
2023/12/18 00:14:50;;;;;;;9.33;6.23;;;;;;;;;;4884820;29;20210;-68
2023/12/18 00:17:17;;;;;;;9.40;6.80;;;;;;;;;;4889298;29;20210;-67
2023/12/18 00:19:44;;;;;;;15.03;7.20;;;;;;;;;;4884889;29;20210;-67
2023/12/18 00:22:11;;;;;;;9.37;5.90;;;;;;;;;;4885788;29;20230;-67
2023/12/18 00:24:38;;;;;;;12.67;7.27;;;;;;;;;;4881398;29;20201;-67
2023/12/18 00:27:05;;;;;;;10.97;6.87;;;;;;;;;;4892753;29;20213;-67
2023/12/18 00:29:33;;;;;;;13.40;7.40;;;;;;;;;;4883736;29;20220;-67
2023/12/18 00:32:00;;;;;;;11.70;6.80;;;;;;;;;;4892766;29;20205;-66
2023/12/18 00:34:27;;;;;;;12.93;7.13;;;;;;;;;;4891935;29;20564;-67
2023/12/18 00:36:54;;;;;;;11.73;6.77;;;;;;;;;;4891533;29;20209;-67
2023/12/18 00:39:21;;;;;;;11.50;7.40;;;;;;;;;;4876652;29;20218;-67
2023/12/18 00:41:49;;;;;;;9.73;7.10;;;;;;;;;;4891291;29;20252;-67
2023/12/18 00:44:16;;;;;;;14.13;7.57;;;;;;;;;;4891758;29;20213;-67
2023/12/18 00:46:44;;;;;;;19.40;7.87;;;;;;;;;;4892233;29;20213;-67
2023/12/18 00:49:11;;;;;;;12.47;7.83;;;;;;;;;;4891013;29;20696;-67
2023/12/18 00:51:38;;;;;;;12.87;7.27;;;;;;;;;;4892438;29;21045;-67
2023/12/18 00:54:05;;;;;;;12.30;7.23;;;;;;;;;;4889543;29;20220;-67
2023/12/18 00:56:33;;;;;;;15.07;8.40;;;;;;;;;;4891620;29;20213;-67
2023/12/18 00:59:00;;;;;;;14.20;7.97;;;;;;;;;;4891927;29;20212;-67
2023/12/18 01:01:27;;;;;;;14.40;8.20;;;;;;;;;;4891438;29;20580;-68
2023/12/18 01:03:55;;;;;;;13.43;7.73;;;;;;;;;;4891523;29;20668;-67
2023/12/18 01:06:22;;;;;;;15.77;8.30;;;;;;;;;;4891633;29;20220;-67
2023/12/18 01:08:49;;;;;;;11.80;7.10;;;;;;;;;;4891620;29;20201;-68
2023/12/18 01:11:15;;;;;;;16.63;8.43;;;;;;;;;;4891673;29;20553;-67
2023/12/18 01:13:42;;;;;;;15.30;7.97;;;;;;;;;;4889721;29;20288;-67
2023/12/18 01:16:09;;;;;;;13.60;8.03;;;;;;;;;;4891739;29;20209;-67
2023/12/18 01:18:37;;;;;;;13.03;8.10;;;;;;;;;;4890925;29;20233;-67
2023/12/18 01:21:11;;;;;;;12.90;7.30;;;;;;;;;;4884741;29;20251;-67
2023/12/18 01:23:38;;;;;;;17.20;8.43;;;;;;;;;;4890726;29;20216;-67
2023/12/18 01:26:05;;;;;;;15.70;7.97;;;;;;;;;;4891367;29;20208;-67
2023/12/18 01:28:32;;;;;;;11.70;7.73;;;;;;;;;;4872878;29;20243;-66
2023/12/18 01:30:59;;;;;;;12.47;6.83;;;;;;;;;;4889369;29;20591;-67
2023/12/18 01:33:26;;;;;;;14.43;7.43;;;;;;;;;;4891169;29;20205;-67
2023/12/18 01:35:53;;;;;;;14.50;7.80;;;;;;;;;;4888796;29;20209;-67
2023/12/18 01:38:21;;;;;;;13.80;8.73;;;;;;;;;;4872894;29;20214;-66
2023/12/18 01:40:48;;;;;;;15.83;8.10;;;;;;;;;;4882607;29;20633;-67
2023/12/18 01:43:34;;;;;;;22.37;8.53;;;;;;;;;;4890972;29;20235;-67
2023/12/18 01:46:01;;;;;;;12.23;6.93;;;;;;;;;;4878462;29;20757;-67
2023/12/18 01:48:29;;;;;;;14.00;8.07;;;;;;;;;;4891158;29;20217;-67
2023/12/18 01:50:56;;;;;;;18.00;8.40;;;;;;;;;;4888305;29;20219;-67
2023/12/18 01:53:26;;;;;;;13.90;7.53;;;;;;;;;;4890436;29;20218;-67
2023/12/18 01:55:53;;;;;;;15.57;8.27;;;;;;;;;;4890682;29;20217;-67
2023/12/18 01:58:20;;;;;;;16.03;8.73;;;;;;;;;;4890866;29;20227;-67
2023/12/18 02:00:47;;;;;;;19.70;8.33;;;;;;;;;;4890566;29;20213;-67
2023/12/18 02:03:15;;;;;;;16.73;8.73;;;;;;;;;;4889985;29;20228;-66
2023/12/18 02:05:42;;;;;;;24.93;8.60;;;;;;;;;;4890045;29;20204;-67
2023/12/18 02:08:09;;;;;;;17.13;8.73;;;;;;;;;;4890772;29;20209;-67
2023/12/18 02:10:38;;;;;;;16.93;8.27;;;;;;;;;;4890274;29;20747;-67
2023/12/18 02:13:05;;;;;;;15.47;8.10;;;;;;;;;;4890248;29;20216;-67
2023/12/18 02:15:33;;;;;;;14.93;8.77;;;;;;;;;;4886810;29;20579;-67
2023/12/18 02:18:00;;;;;;;15.80;8.43;;;;;;;;;;4887407;29;20796;-67
2023/12/18 02:20:27;;;;;;;21.30;9.87;;;;;;;;;;4881852;29;20249;-67
2023/12/18 02:22:55;;;;;;;18.83;8.80;;;;;;;;;;4890227;29;20229;-67
2023/12/18 02:25:22;;;;;;;18.57;8.47;;;;;;;;;;4889173;29;20614;-66
2023/12/18 02:27:50;;;;;;;20.50;8.30;;;;;;;;;;4890262;29;20220;-67
2023/12/18 02:30:18;;;;;;;20.57;9.10;;;;;;;;;;4890340;29;20208;-67
2023/12/18 02:32:45;;;;;;;24.87;8.83;;;;;;;;;;4889890;29;20205;-67
2023/12/18 02:35:12;;;;;;;21.27;9.90;;;;;;;;;;4890353;29;20213;-67
2023/12/18 02:37:39;;;;;;;20.57;8.90;;;;;;;;;;4890275;29;20217;-67
2023/12/18 02:40:08;;;;;;;19.10;8.90;;;;;;;;;;4889728;29;20220;-68
2023/12/18 02:42:35;;;;;;;18.83;9.57;;;;;;;;;;4889866;29;20229;-67
2023/12/18 02:45:02;;;;;;;21.63;9.37;;;;;;;;;;4889768;29;20217;-67
2023/12/18 02:47:29;;;;;;;16.13;8.20;;;;;;;;;;4889151;29;20209;-67
2023/12/18 02:49:56;;;;;;;19.37;9.83;;;;;;;;;;4885588;29;20272;-68
2023/12/18 02:52:23;;;;;;;16.47;9.50;;;;;;;;;;4887758;29;20205;-68
2023/12/18 02:54:51;;;;;;;18.63;9.47;;;;;;;;;;4889964;29;20226;-68
2023/12/18 02:57:19;;;;;;;16.87;9.33;;;;;;;;;;4890055;29;20228;-67
2023/12/18 02:59:46;;;;;;;23.53;10.03;;;;;;;;;;4889892;29;20224;-67
2023/12/18 03:02:13;;;;;;;20.30;9.53;;;;;;;;;;4889233;29;20232;-67
2023/12/18 03:04:41;;;;;;;18.60;8.93;;;;;;;;;;4889490;29;20206;-68
2023/12/18 03:07:20;;;;;;;17.90;9.03;;;;;;;;;;4889810;29;20552;-68
2023/12/18 03:09:47;;;;;;;14.63;8.23;;;;;;;;;;4888038;29;20219;-67
2023/12/18 03:12:14;;;;;;;16.27;9.20;;;;;;;;;;4889659;29;20208;-68
2023/12/18 03:14:43;;;;;;;19.97;10.00;;;;;;;;;;4889574;29;20221;-67
2023/12/18 03:17:10;;;;;;;21.70;9.43;;;;;;;;;;4889622;29;20211;-67
2023/12/18 03:19:37;;;;;;;22.83;9.97;;;;;;;;;;4890071;29;20217;-67
2023/12/18 03:22:04;;;;;;;20.57;9.30;;;;;;;;;;4889511;29;20241;-68
2023/12/18 03:24:31;;;;;;;16.23;9.10;;;;;;;;;;4889537;29;20679;-67
2023/12/18 03:26:58;;;;;;;18.60;9.27;;;;;;;;;;4889249;29;20213;-68
2023/12/18 03:29:25;;;;;;;21.07;10.03;;;;;;;;;;4889617;29;20205;-67
2023/12/18 03:31:53;;;;;;;19.60;8.80;;;;;;;;;;4889619;29;20632;-67
2023/12/18 03:34:20;;;;;;;19.80;8.80;;;;;;;;;;4889683;29;20213;-67
2023/12/18 03:36:48;;;;;;;16.90;8.80;;;;;;;;;;4889563;29;20213;-67
2023/12/18 03:39:15;;;;;;;21.23;8.80;;;;;;;;;;4889322;29;20225;-67
2023/12/18 03:41:42;;;;;;;19.70;9.10;;;;;;;;;;4888700;29;20357;-67
2023/12/18 03:44:09;;;;;;;17.20;8.77;;;;;;;;;;4889493;29;20216;-67
2023/12/18 03:46:36;;;;;;;17.37;8.90;;;;;;;;;;4889717;29;20227;-68
2023/12/18 03:49:04;;;;;;;23.37;9.30;;;;;;;;;;4889103;29;20591;-68
2023/12/18 03:51:32;;;;;;;16.33;9.00;;;;;;;;;;4889269;29;20216;-68
2023/12/18 03:53:59;;;;;;;17.70;9.37;;;;;;;;;;4889279;29;20221;-68
2023/12/18 03:56:26;;;;;;;17.47;8.87;;;;;;;;;;4881545;29;20241;-67
2023/12/18 03:58:53;;;;;;;19.67;8.60;;;;;;;;;;4889442;29;20611;-68
2023/12/18 04:01:20;;;;;;;20.47;9.90;;;;;;;;;;4892030;29;20212;-67
2023/12/18 04:03:47;;;;;;;18.33;9.30;;;;;;;;;;4892696;29;20295;-67
2023/12/18 04:06:15;;;;;;;25.00;9.87;;;;;;;;;;4892719;29;20701;-67
2023/12/18 04:08:42;;;;;;;31.23;11.90;;;;;;;;;;4893149;29;20217;-67
2023/12/18 04:11:15;;;;;;;31.97;12.73;;;;;;;;;;4892777;29;20220;-67
2023/12/18 04:13:42;;;;;;;26.37;9.90;;;;;;;;;;4893135;29;20239;-67
2023/12/18 04:16:09;;;;;;;25.73;11.23;;;;;;;;;;4892218;29;20240;-67
2023/12/18 04:18:36;;;;;;;19.87;9.63;;;;;;;;;;4892858;29;20240;-68
2023/12/18 04:21:03;;;;;;;23.37;8.80;;;;;;;;;;4890881;29;20979;-67
2023/12/18 04:23:31;;;;;;;20.43;8.40;;;;;;;;;;4892625;29;20236;-67
2023/12/18 04:25:58;;;;;;;19.70;9.23;;;;;;;;;;4892498;29;20216;-67
2023/12/18 04:28:25;;;;;;;18.83;8.93;;;;;;;;;;4892705;29;20212;-67
2023/12/18 04:30:52;;;;;;;21.40;9.57;;;;;;;;;;4892227;29;20216;-68
2023/12/18 04:33:19;;;;;;;20.53;10.17;;;;;;;;;;4892549;29;20202;-68
2023/12/18 04:35:46;;;;;;;25.60;9.90;;;;;;;;;;4892193;29;20231;-68
2023/12/18 04:38:14;;;;;;;21.40;9.63;;;;;;;;;;4892363;29;20220;-67
2023/12/18 04:40:42;;;;;;;20.57;9.07;;;;;;;;;;4892082;29;20206;-67
2023/12/18 04:43:09;;;;;;;20.77;9.57;;;;;;;;;;4873858;29;20244;-67
2023/12/18 04:45:36;;;;;;;18.73;9.53;;;;;;;;;;4891533;29;20209;-67
2023/12/18 04:48:03;;;;;;;18.73;8.40;;;;;;;;;;4892142;29;20559;-68
2023/12/18 04:50:30;;;;;;;19.77;9.07;;;;;;;;;;4891696;29;20460;-67
2023/12/18 04:52:57;;;;;;;23.33;9.03;;;;;;;;;;4892263;29;20208;-68
2023/12/18 04:55:24;;;;;;;25.17;9.10;;;;;;;;;;4891636;29;20208;-68
2023/12/18 04:57:52;;;;;;;20.23;9.10;;;;;;;;;;4891837;29;20221;-67
2023/12/18 05:00:19;;;;;;;19.87;9.90;;;;;;;;;;4892029;29;20209;-67
2023/12/18 05:02:47;;;;;;;21.90;9.50;;;;;;;;;;4879755;29;20603;-67
2023/12/18 05:05:14;;;;;;;15.57;9.07;;;;;;;;;;4892258;29;20216;-67
2023/12/18 05:07:41;;;;;;;19.63;9.37;;;;;;;;;;4887422;29;20206;-68
2023/12/18 05:10:08;;;;;;;20.00;8.67;;;;;;;;;;4892256;29;20383;-67
2023/12/18 05:12:35;;;;;;;19.10;9.40;;;;;;;;;;4891762;29;20205;-67
2023/12/18 05:15:05;;;;;;;23.20;9.40;;;;;;;;;;4891851;29;20239;-67
2023/12/18 05:17:32;;;;;;;18.63;9.23;;;;;;;;;;4890203;29;20237;-67
2023/12/18 05:19:59;;;;;;;18.33;8.97;;;;;;;;;;4891542;29;20217;-67
2023/12/18 05:22:26;;;;;;;19.27;9.10;;;;;;;;;;4891475;29;20457;-67
2023/12/18 05:24:53;;;;;;;19.40;9.63;;;;;;;;;;4891735;29;20224;-68
2023/12/18 05:27:20;;;;;;;19.23;9.33;;;;;;;;;;4891425;29;20210;-67
2023/12/18 05:29:47;;;;;;;28.87;9.60;;;;;;;;;;4891225;29;20221;-67
2023/12/18 05:32:15;;;;;;;23.20;9.33;;;;;;;;;;4891123;29;20212;-67
2023/12/18 05:34:42;;;;;;;20.47;9.50;;;;;;;;;;4890722;29;20215;-67
2023/12/18 05:37:09;;;;;;;18.20;9.10;;;;;;;;;;4891351;29;20308;-67
2023/12/18 05:39:36;;;;;;;21.83;10.10;;;;;;;;;;4890897;29;20208;-67
2023/12/18 05:42:03;;;;;;;19.47;8.80;;;;;;;;;;4891296;29;20893;-67
2023/12/18 05:44:30;;;;;;;24.20;9.07;;;;;;;;;;4891097;29;20229;-67
2023/12/18 05:46:57;;;;;;;17.67;8.90;;;;;;;;;;4891285;29;20217;-67
2023/12/18 05:49:27;;;;;;;19.80;9.30;;;;;;;;;;4891169;29;20584;-67
2023/12/18 05:51:54;;;;;;;31.07;10.37;;;;;;;;;;4891161;29;20210;-68
2023/12/18 05:54:21;;;;;;;19.80;10.10;;;;;;;;;;4890594;29;20209;-65
2023/12/18 05:56:48;;;;;;;22.07;10.27;;;;;;;;;;4890873;29;20699;-66
2023/12/18 05:59:15;;;;;;;26.53;10.00;;;;;;;;;;4889880;29;20208;-66
2023/12/18 06:01:42;;;;;;;32.00;9.60;;;;;;;;;;4889849;29;20213;-67
2023/12/18 06:04:09;;;;;;;21.17;9.97;;;;;;;;;;4886723;29;20225;-68
2023/12/18 06:06:38;;;;;;;30.37;8.37;;;;;;;;;;4889198;29;20209;-68
2023/12/18 06:09:05;;;;;;;19.47;9.87;;;;;;;;;;4890402;29;20239;-68
2023/12/18 06:11:33;;;;;;;18.70;10.07;;;;;;;;;;4889847;29;20205;-68
2023/12/18 06:14:00;;;;;;;32.03;10.30;;;;;;;;;;4884464;29;20208;-68
2023/12/18 06:16:27;;;;;;;30.27;10.70;;;;;;;;;;4890985;29;20224;-68
2023/12/18 06:18:54;;;;;;;20.90;9.43;;;;;;;;;;4888707;29;20237;-68
2023/12/18 06:21:21;;;;;;;30.33;10.27;;;;;;;;;;4890261;29;20731;-68
2023/12/18 06:23:50;;;;;;;28.17;10.27;;;;;;;;;;4885346;29;20515;-68
2023/12/18 06:26:17;;;;;;;23.90;10.87;;;;;;;;;;4888342;29;20236;-68
2023/12/18 06:28:44;;;;;;;20.83;10.23;;;;;;;;;;4888459;29;20235;-69
2023/12/18 06:31:11;;;;;;;21.70;10.40;;;;;;;;;;4890263;29;20237;-68
2023/12/18 06:33:38;;;;;;;21.60;10.37;;;;;;;;;;4890452;29;20208;-68
2023/12/18 06:36:05;;;;;;;25.43;10.97;;;;;;;;;;4890011;29;20691;-68
2023/12/18 06:38:32;;;;;;;24.50;11.47;;;;;;;;;;4888516;29;20224;-68
2023/12/18 06:41:01;;;;;;;23.03;10.60;;;;;;;;;;4887976;29;20225;-68
2023/12/18 06:43:28;;;;;;;19.63;10.20;;;;;;;;;;4879744;29;20304;-68
2023/12/18 06:45:55;;;;;;;30.10;10.20;;;;;;;;;;4890431;29;20213;-68
2023/12/18 06:48:23;;;;;;;21.80;10.17;;;;;;;;;;4890094;29;20232;-68
2023/12/18 06:50:50;;;;;;;19.50;9.43;;;;;;;;;;4890105;29;20248;-68
2023/12/18 06:53:17;;;;;;;19.97;9.87;;;;;;;;;;4890056;29;20205;-68
2023/12/18 06:55:44;;;;;;;17.20;9.10;;;;;;;;;;4889669;29;20227;-68
2023/12/18 06:58:13;;;;;;;24.27;9.87;;;;;;;;;;4889819;29;20587;-68
2023/12/18 07:00:40;;;;;;;16.57;9.30;;;;;;;;;;4890040;29;20703;-68
2023/12/18 07:03:07;;;;;;;20.30;9.90;;;;;;;;;;4889617;29;20255;-68
2023/12/18 07:05:34;;;;;;;23.17;9.93;;;;;;;;;;4889881;29;20350;-69
2023/12/18 07:08:01;;;;;;;17.37;9.60;;;;;;;;;;4888989;29;20227;-69
2023/12/18 07:10:28;;;;;;;17.57;9.47;;;;;;;;;;4889429;29;20225;-67
2023/12/18 07:12:55;;;;;;;17.80;10.27;;;;;;;;;;4889816;29;20215;-67
2023/12/18 07:15:25;;;;;;;17.07;9.23;;;;;;;;;;4889670;29;20213;-69
2023/12/18 07:17:52;;;;;;;21.80;10.20;;;;;;;;;;4885046;29;20770;-67
2023/12/18 07:20:19;;;;;;;16.33;9.40;;;;;;;;;;4871270;29;20494;-67
2023/12/18 07:22:46;;;;;;;21.10;10.00;;;;;;;;;;4873781;29;20696;-68
2023/12/18 07:25:13;;;;;;;16.20;8.10;;;;;;;;;;4889460;29;21013;-67
2023/12/18 07:27:40;;;;;;;18.83;9.83;;;;;;;;;;4889668;29;20216;-67
2023/12/18 07:30:08;;;;;;;15.47;8.03;;;;;;;;;;4889924;29;20217;-69
2023/12/18 07:32:36;;;;;;;17.67;9.20;;;;;;;;;;4889202;29;20209;-66
2023/12/18 07:35:04;;;;;;;13.80;8.83;;;;;;;;;;4889836;29;20952;-68
2023/12/18 07:37:31;;;;;;;16.37;8.33;;;;;;;;;;4886046;29;20214;-68
2023/12/18 07:39:59;;;;;;;16.03;8.57;;;;;;;;;;4893090;29;20314;-69
2023/12/18 07:42:27;;;;;;;19.70;9.20;;;;;;;;;;4893424;29;20209;-68
2023/12/18 07:44:54;;;;;;;15.73;8.27;;;;;;;;;;4893466;29;20260;-68
2023/12/18 07:47:21;;;;;;;25.40;9.47;;;;;;;;;;4893363;29;20212;-69
2023/12/18 07:49:49;;;;;;;14.77;8.83;;;;;;;;;;4893402;29;20224;-69
2023/12/18 07:52:17;;;;;;;20.53;9.47;;;;;;;;;;4893188;29;20244;-69
2023/12/18 07:54:44;;;;;;;18.70;8.90;;;;;;;;;;4893334;29;20450;-69
2023/12/18 07:57:11;;;;;;;31.50;10.70;;;;;;;;;;4893035;29;20751;-69
2023/12/18 07:59:39;;;;;;;21.17;9.57;;;;;;;;;;4893192;29;20216;-69
2023/12/18 08:02:07;;;;;;;25.20;9.57;;;;;;;;;;4893027;29;20752;-69
2023/12/18 08:04:35;;;;;;;22.10;9.60;;;;;;;;;;4893072;29;20240;-69
2023/12/18 08:07:04;;;;;;;25.13;9.57;;;;;;;;;;4893272;29;20319;-69
2023/12/18 08:09:31;;;;;;;22.10;8.93;;;;;;;;;;4892755;29;20220;-69
2023/12/18 08:11:58;;;;;;;17.83;9.53;;;;;;;;;;4892273;29;20217;-69
2023/12/18 08:14:27;;;;;;;16.67;8.80;;;;;;;;;;4892926;29;20210;-69
2023/12/18 08:16:55;;;;;;;18.03;8.37;;;;;;;;;;4893193;29;20221;-69
2023/12/18 08:19:22;;;;;;;15.63;8.47;;;;;;;;;;4892808;29;20708;-69
2023/12/18 08:21:49;;;;;;;22.37;8.93;;;;;;;;;;4891377;29;20259;-69
2023/12/18 08:24:17;;;;;;;15.47;8.17;;;;;;;;;;4873861;29;20233;-69
2023/12/18 08:26:47;;;;;;;15.97;7.80;;;;;;;;;;4881083;29;20608;-69
2023/12/18 08:29:14;;;;;;;14.63;8.53;;;;;;;;;;4892390;29;20268;-68
2023/12/18 08:31:42;;;;;;;13.27;8.67;;;;;;;;;;4892508;29;20676;-68
2023/12/18 08:34:09;;;;;;;17.37;8.43;;;;;;;;;;4892627;29;20227;-67
2023/12/18 08:36:37;;;;;;;17.80;8.43;;;;;;;;;;4892415;29;20213;-68
2023/12/18 08:39:08;;;;;;;15.77;8.57;;;;;;;;;;4891376;29;20233;-68
2023/12/18 08:41:37;;;;;;;22.60;9.73;;;;;;;;;;4891958;29;20213;-66
2023/12/18 08:44:04;;;;;;;15.50;9.07;;;;;;;;;;4892234;29;20601;-66
2023/12/18 08:46:31;;;;;;;14.17;7.97;;;;;;;;;;4891915;29;20513;-67
2023/12/18 08:48:58;;;;;;;22.13;9.10;;;;;;;;;;4892563;29;20587;-67
2023/12/18 08:51:25;;;;;;;17.03;9.23;;;;;;;;;;4892263;29;20217;-67
2023/12/18 08:53:54;;;;;;;15.00;8.87;;;;;;;;;;4892474;29;20220;-69
2023/12/18 08:56:21;;;;;;;19.53;8.90;;;;;;;;;;4890820;29;20217;-66
2023/12/18 08:58:52;;;;;;;23.03;12.67;;;;;;;;;;4888161;29;20216;-67
2023/12/18 09:01:19;;;;;;;17.37;9.57;;;;;;;;;;4887154;29;20320;-70
2023/12/18 09:03:46;;;;;;;15.53;8.73;;;;;;;;;;4879141;29;20715;-72
2023/12/18 09:06:13;;;;;;;20.67;9.53;;;;;;;;;;4891921;29;20220;-73
2023/12/18 09:08:40;;;;;;;16.30;8.23;;;;;;;;;;4891003;29;20220;-74
2023/12/18 09:11:07;;;;;;;13.70;8.13;;;;;;;;;;4888222;29;20212;-75
2023/12/18 09:13:34;;;;;;;19.47;8.97;;;;;;;;;;4891334;29;20223;-72
2023/12/18 09:16:03;;;;;;;13.53;8.17;;;;;;;;;;4891615;29;20213;-66
2023/12/18 09:18:30;;;;;;;15.90;8.67;;;;;;;;;;4883709;29;20236;-65
2023/12/18 09:20:57;;;;;;;16.97;9.27;;;;;;;;;;4891553;29;20249;-65
2023/12/18 09:23:25;;;;;;;17.83;8.57;;;;;;;;;;4888590;29;20206;-65
2023/12/18 09:25:52;;;;;;;18.30;9.87;;;;;;;;;;4872988;29;20279;-66
2023/12/18 09:28:19;;;;;;;17.13;9.47;;;;;;;;;;4885447;29;20224;-65
2023/12/18 09:30:46;;;;;;;18.23;9.13;;;;;;;;;;4891006;29;20408;-71
2023/12/18 09:33:14;;;;;;;16.13;9.20;;;;;;;;;;4891290;29;20212;-66
2023/12/18 09:35:41;;;;;;;15.23;9.03;;;;;;;;;;4890723;29;20213;-66
2023/12/18 09:38:09;;;;;;;16.33;8.27;;;;;;;;;;4889125;29;20209;-66
2023/12/18 09:40:36;;;;;;;15.90;8.57;;;;;;;;;;4885912;29;20209;-66
2023/12/18 09:43:03;;;;;;;17.10;9.53;;;;;;;;;;4890807;29;20213;-66
2023/12/18 09:45:32;;;;;;;21.70;9.73;;;;;;;;;;4885978;29;20229;-66
2023/12/18 09:47:59;;;;;;;16.00;8.20;;;;;;;;;;4890156;29;20239;-66
2023/12/18 09:50:27;;;;;;;20.23;10.10;;;;;;;;;;4885562;29;20594;-66
2023/12/18 09:53:00;;;;;;;18.73;8.93;;;;;;;;;;4890470;29;20224;-66
2023/12/18 09:55:27;;;;;;;20.00;9.60;;;;;;;;;;4890435;29;20214;-66
2023/12/18 09:57:57;;;;;;;19.37;9.17;;;;;;;;;;4886510;29;20220;-67
2023/12/18 10:00:24;;;;;;;17.30;9.67;;;;;;;;;;4890645;29;20222;-65
2023/12/18 10:02:52;;;;;;;25.10;10.80;;;;;;;;;;4890729;29;20692;-66
2023/12/18 10:05:19;;;;;;;18.40;10.00;;;;;;;;;;4889569;29;20248;-66
2023/12/18 10:07:48;;;;;;;19.33;10.23;;;;;;;;;;4890566;29;20217;-65
2023/12/18 10:10:16;;;;;;;18.60;10.60;;;;;;;;;;4889642;29;20926;-64
2023/12/18 10:12:43;;;;;;;17.73;9.47;;;;;;;;;;4889906;29;20213;-66
2023/12/18 10:15:11;;;;;;;19.97;10.23;;;;;;;;;;4889832;29;20212;-67
2023/12/18 10:17:39;;;;;;;20.67;11.30;;;;;;;;;;4889813;29;20961;-66
2023/12/18 10:20:07;;;;;;;18.77;10.50;;;;;;;;;;4890154;29;20213;-65
2023/12/18 10:22:34;;;;;;;19.33;11.63;;;;;;;;;;4890498;29;20213;-64
2023/12/18 10:25:03;;;;;;;23.73;11.27;;;;;;;;;;4889925;29;20237;-67
2023/12/18 10:27:32;;;;;;;20.13;11.03;;;;;;;;;;4889648;29;20214;-66
2023/12/18 10:29:59;;;;;;;20.33;11.20;;;;;;;;;;4887083;29;20233;-64
2023/12/18 10:32:27;;;;;;;17.03;10.00;;;;;;;;;;4889900;29;20209;-64
2023/12/18 10:34:55;;;;;;;15.17;9.27;;;;;;;;;;4889993;29;20213;-64
2023/12/18 10:37:24;;;;;;;16.10;9.17;;;;;;;;;;4875589;29;20289;-67
2023/12/18 10:39:52;;;;;;;22.90;10.13;;;;;;;;;;4881736;29;20221;-67
2023/12/18 10:42:33;;;;;;;16.47;10.07;;;;;;;;;;4885533;29;20983;-61
2023/12/18 10:45:01;;;;;;;15.60;9.13;;;;;;;;;;4871141;29;20244;-61
2023/12/18 10:47:29;;;;;;;16.97;10.37;;;;;;;;;;4870793;29;20218;-61
2023/12/18 10:49:58;;;;;;;15.43;9.27;;;;;;;;;;4887845;29;20220;-61
2023/12/18 10:52:26;;;;;;;17.43;8.87;;;;;;;;;;4882407;29;20212;-61
2023/12/18 10:54:54;;;;;;;14.60;9.80;;;;;;;;;;4887961;29;20233;-60
2023/12/18 10:57:23;;;;;;;15.13;9.23;;;;;;;;;;4877199;29;20622;-60
2023/12/18 10:59:51;;;;;;;16.50;9.53;;;;;;;;;;4889149;29;20212;-60
2023/12/18 11:02:18;;;;;;;17.93;10.17;;;;;;;;;;4889238;29;20246;-60
2023/12/18 11:04:46;;;;;;;17.40;9.63;;;;;;;;;;4875180;29;20237;-60
2023/12/18 11:07:14;;;;;;;17.67;9.80;;;;;;;;;;4872454;29;20234;-60
2023/12/18 11:09:41;;;;;;;16.77;9.37;;;;;;;;;;4888813;29;20225;-60
2023/12/18 11:12:08;;;;;;;13.37;9.20;;;;;;;;;;4889543;29;20220;-59
2023/12/18 11:14:41;;;;;;;14.77;9.33;;;;;;;;;;4888515;29;20209;-59
2023/12/18 11:17:13;;;;;;;18.43;10.37;;;;;;;;;;4889242;29;20212;-64
2023/12/18 11:19:45;;;;;;;16.90;9.63;;;;;;;;;;4889159;29;20227;-66
2023/12/18 11:22:16;;;;;;;16.70;8.97;;;;;;;;;;4875868;29;20306;-72
2023/12/18 11:24:46;;;;;;;19.83;10.47;;;;;;;;;;4884654;29;20234;-59
2023/12/18 11:27:13;;;;;;;23.70;11.70;;;;;;;;;;4889100;29;20225;-60
2023/12/18 11:29:45;;;;;;;35.03;15.13;;;;;;;;;;4888743;29;20236;-63
2023/12/18 11:32:12;;;;;;;20.67;12.20;;;;;;;;;;4886195;29;20236;-60
2023/12/18 11:34:41;;;;;;;20.43;11.90;;;;;;;;;;4888208;29;20212;-60
2023/12/18 11:37:08;;;;;;;23.77;12.60;;;;;;;;;;4886765;29;20246;-60
2023/12/18 11:39:39;;;;;;;21.23;11.80;;;;;;;;;;4875557;29;20208;-60
2023/12/18 11:42:06;;;;;;;21.43;11.50;;;;;;;;;;4887930;29;20544;-60
2023/12/18 11:44:35;;;;;;;16.50;10.47;;;;;;;;;;4888014;29;20268;-60
2023/12/18 11:47:04;;;;;;;22.53;12.17;;;;;;;;;;4888035;29;20219;-59
2023/12/18 11:49:31;;;;;;;18.63;11.50;;;;;;;;;;4888075;29;20226;-60
2023/12/18 11:51:59;;;;;;;20.10;11.90;;;;;;;;;;4885605;29;20686;-60
2023/12/18 11:54:27;;;;;;;19.60;11.90;;;;;;;;;;4887767;29;20209;-60
2023/12/18 11:56:56;;;;;;;22.03;13.33;;;;;;;;;;4888560;29;20712;-61
2023/12/18 11:59:23;;;;;;;19.40;11.03;;;;;;;;;;4888490;29;20248;-60
2023/12/18 12:01:52;;;;;;;23.77;13.27;;;;;;;;;;4887686;29;20220;-60
2023/12/18 12:04:21;;;;;;;23.13;13.73;;;;;;;;;;4888632;29;20682;-60
2023/12/18 12:06:48;;;;;;;24.23;14.03;;;;;;;;;;4888598;29;20207;-60
2023/12/18 12:09:15;;;;;;;23.80;13.63;;;;;;;;;;4887573;29;20296;-60
2023/12/18 12:11:42;;;;;;;20.87;12.90;;;;;;;;;;4888130;29;20266;-60
2023/12/18 12:14:09;;;;;;;22.40;12.77;;;;;;;;;;4888322;29;20675;-60
2023/12/18 12:16:36;;;;;;;23.47;13.57;;;;;;;;;;4888105;29;20213;-60
2023/12/18 12:19:03;;;;;;;23.70;13.40;;;;;;;;;;4888365;29;20246;-60
2023/12/18 12:21:32;;;;;;;23.17;13.73;;;;;;;;;;4888873;29;20241;-60
2023/12/18 12:23:59;;;;;;;21.50;12.10;;;;;;;;;;4890796;29;20716;-61
2023/12/18 12:26:26;;;;;;;16.60;11.20;;;;;;;;;;4891646;29;20249;-60
2023/12/18 12:28:53;;;;;;;20.43;11.60;;;;;;;;;;4890913;29;20222;-60
2023/12/18 12:31:21;;;;;;;21.77;12.20;;;;;;;;;;4891159;29;20597;-61
2023/12/18 12:33:49;;;;;;;20.93;11.90;;;;;;;;;;4877710;29;20307;-60
2023/12/18 12:36:21;;;;;;;19.00;12.10;;;;;;;;;;4872523;29;20790;-60
2023/12/18 12:38:49;;;;;;;23.63;12.13;;;;;;;;;;4872568;29;20305;-60
2023/12/18 12:41:16;;;;;;;21.00;11.03;;;;;;;;;;4880907;29;20250;-61
2023/12/18 12:43:44;;;;;;;24.57;11.47;;;;;;;;;;4891501;29;20217;-61
2023/12/18 12:46:11;;;;;;;22.20;12.00;;;;;;;;;;4890833;29;20905;-59
2023/12/18 12:48:38;;;;;;;22.03;13.23;;;;;;;;;;4891419;29;20221;-60
2023/12/18 12:51:05;;;;;;;23.47;12.63;;;;;;;;;;4891206;29;20218;-60
2023/12/18 12:53:33;;;;;;;21.90;12.50;;;;;;;;;;4890754;29;20330;-60
2023/12/18 12:56:01;;;;;;;23.37;12.93;;;;;;;;;;4891527;29;20222;-59
2023/12/18 12:58:33;;;;;;;22.60;12.47;;;;;;;;;;4891319;29;20209;-60
2023/12/18 13:01:01;;;;;;;23.63;12.27;;;;;;;;;;4891146;29;20210;-60
2023/12/18 13:03:28;;;;;;;22.83;12.57;;;;;;;;;;4891613;29;20220;-60
2023/12/18 13:05:56;;;;;;;21.40;11.90;;;;;;;;;;4891107;29;20225;-60
2023/12/18 13:08:23;;;;;;;22.40;12.50;;;;;;;;;;4890782;29;20269;-61
2023/12/18 13:10:50;;;;;;;19.87;11.87;;;;;;;;;;4891334;29;20205;-60
2023/12/18 13:13:18;;;;;;;20.80;11.07;;;;;;;;;;4890909;29;20685;-60
2023/12/18 13:15:45;;;;;;;21.87;12.33;;;;;;;;;;4891044;29;20220;-60
2023/12/18 13:18:14;;;;;;;20.27;11.83;;;;;;;;;;4891241;29;20237;-60
2023/12/18 13:20:41;;;;;;;25.50;12.67;;;;;;;;;;4890662;29;20237;-60
2023/12/18 13:23:08;;;;;;;22.23;12.20;;;;;;;;;;4891273;29;20221;-61
2023/12/18 13:25:36;;;;;;;22.63;12.63;;;;;;;;;;4890969;29;20237;-60
2023/12/18 13:28:03;;;;;;;23.63;12.37;;;;;;;;;;4890798;29;20246;-60
2023/12/18 13:30:31;;;;;;;20.87;12.07;;;;;;;;;;4891272;29;20352;-59
2023/12/18 13:32:58;;;;;;;24.20;12.57;;;;;;;;;;4890953;29;20217;-60
2023/12/18 13:35:26;;;;;;;25.23;13.50;;;;;;;;;;4891190;29;20209;-59
2023/12/18 13:37:53;;;;;;;22.43;13.77;;;;;;;;;;4890386;29;20300;-60
2023/12/18 13:40:20;;;;;;;20.20;12.10;;;;;;;;;;4890883;29;20218;-60
2023/12/18 13:42:48;;;;;;;23.10;12.53;;;;;;;;;;4890426;29;20251;-60
2023/12/18 13:45:15;;;;;;;21.17;12.40;;;;;;;;;;4890651;29;20804;-60
2023/12/18 13:47:43;;;;;;;26.27;14.73;;;;;;;;;;4890515;29;20654;-59
2023/12/18 13:50:10;;;;;;;28.00;14.87;;;;;;;;;;4890343;29;20240;-60
2023/12/18 13:52:38;;;;;;;26.63;14.33;;;;;;;;;;4891007;29;20220;-60
2023/12/18 13:55:06;;;;;;;23.23;13.27;;;;;;;;;;4890494;29;20224;-59
2023/12/18 13:57:33;;;;;;;23.70;13.60;;;;;;;;;;4890402;29;20314;-60
2023/12/18 14:00:03;;;;;;;22.33;12.17;;;;;;;;;;4889957;29;20243;-60
2023/12/18 14:02:32;;;;;;;20.60;12.73;;;;;;;;;;4889624;29;20217;-60
2023/12/18 14:05:02;;;;;;;22.03;12.40;;;;;;;;;;4889343;29;20217;-61
2023/12/18 14:07:30;;;;;;;24.10;13.20;;;;;;;;;;4890456;29;20223;-60
2023/12/18 14:09:57;;;;;;;25.23;12.63;;;;;;;;;;4889500;29;20220;-60
2023/12/18 14:12:24;;;;;;;25.90;13.93;;;;;;;;;;4889412;29;20232;-60
2023/12/18 14:14:51;;;;;;;21.70;12.33;;;;;;;;;;4889989;29;20232;-60
2023/12/18 14:17:18;;;;;;;22.03;13.17;;;;;;;;;;4889330;29;20309;-60
2023/12/18 14:19:45;;;;;;;27.33;14.37;;;;;;;;;;4889600;29;20212;-60
2023/12/18 14:22:13;;;;;;;22.10;13.23;;;;;;;;;;4889584;29;20251;-60
2023/12/18 14:24:41;;;;;;;25.67;14.40;;;;;;;;;;4889156;29;20686;-60
2023/12/18 14:27:08;;;;;;;25.47;13.40;;;;;;;;;;4889928;29;20325;-60